Terminal Aerodrome Forecast
Issued by NWS

Home | Current Version | Previous Version | Text Only | Print | Product List | Glossary On
Versions: 1 2 3 4 5 6 7 8 9 10 11 12 13 14 15 16 17 18 19 20 21 22
000
FTUS43 KBIS 301129
TAFDIK
TAF
KDIK 301129Z 3012/3112 12007KT P6SM FEW100
     FM301500 13016G23KT P6SM SCT090
     FM310600 13012G20KT P6SM VCSH OVC080=

USA.gov is the U.S. government's official web portal to all federal, state and local government web resources and services.